Hauptseite
METAR-TAF:

METAR-TAF

Flughäfen :

Aviano, Italien

Aviano Air Base

Breite: 46-02N, Länge: 012-36E, Höhe: 128 m

Beobachtung

Neuester Wetterbericht von vor 3 Stunden und 18 Minuten, um 19:55 UTC
Wind 4 kt aus Nord/Nordost
Temperatur 19°C
Luftfeuchtigkeit 68%
Luftdruck 1019 hPa
Sichtweite 10 km oder mehr
keine Wolken unter 1500 m und keine Kumulonimbus oder Gewitterwolken

METAR: LIPA 211955Z 03004KT CAVOK 19/13 Q1019 RMK SKC VIS MIN 9999 WIND THR05 /////KT WIND THR23 /////KT A3009 BLU

Zeit: 01:13 (23:13 UTC)

Prognose

Neuester Wetterbericht von vor 3 Stunden und 13 Minuten, um 20:00 UTC
Gültige Prognose vom 21 um 21 UTC bis 22 um 06 UTC
Wind 5 kt aus unterschiedlichen Richtungen
Sichtweite 10 km oder mehr
keine Wolken unter 1500 m und keine Kumulonimbus oder Gewitterwolken

TAF: LIPA 212000Z 2121/2206 VRB05KT CAVOK

Wetterbeobachtungen und Prognosen von mehr als 4000 Flughäfen (METAR und TAF Bericht).

Die verfügbaren Stationen werden durch gelbe und rote Markierungen auf der Karte dargestellt.

Führen Sie die Maus auf sie, um den Namen der Station zu sehen.

Darauf klicken, um die Beobachtung von Wetterbeobachtungen und Prognosen zu sehen.

Um die Karte zu ändern : klicken Sie auf den grünen Tasten mit einem schwarzen Kreuz Zum Vergrößern, auf den grünen Button mit einem Gedankenstrich zu verkleinern, oder auf die grünen Pfeile für benachbarte Karten.


METAR-TAF: